createdAt,value
2022-12-08T00:01:21.437Z,29.95
2022-12-08T00:03:48.325Z,28.48
2022-12-08T00:06:40.365Z,25.52
2022-12-08T00:09:21.901Z,30.27
2022-12-08T00:12:17.608Z,27.05
2022-12-08T00:14:46.590Z,28.95
2022-12-08T00:17:14.986Z,30.77
2022-12-08T00:19:42.167Z,28.33
2022-12-08T00:22:10.263Z,28.65
2022-12-08T00:24:39.596Z,26.42
2022-12-08T00:27:12.267Z,28.20
2022-12-08T00:29:38.944Z,28.55
2022-12-08T00:32:06.661Z,27.90
2022-12-08T00:34:33.974Z,28.48
2022-12-08T00:37:00.724Z,27.25
2022-12-08T00:39:27.522Z,28.15
2022-12-08T00:42:12.422Z,28.30
2022-12-08T00:44:43.385Z,29.23
2022-12-08T00:47:11.405Z,29.33
2022-12-08T00:49:38.053Z,30.17
2022-12-08T00:52:04.863Z,27.48
2022-12-08T00:54:31.473Z,30.85
2022-12-08T00:56:58.220Z,29.45
2022-12-08T00:59:24.839Z,28.90
2022-12-08T01:01:51.496Z,28.67
2022-12-08T01:04:19.312Z,32.03
2022-12-08T01:06:46.781Z,30.02
2022-12-08T01:09:15.168Z,28.67
2022-12-08T01:11:41.919Z,31.10
2022-12-08T01:14:08.543Z,29.38
2022-12-08T01:16:36.491Z,28.92
2022-12-08T01:19:03.616Z,29.33
2022-12-08T01:21:30.227Z,29.25
2022-12-08T01:23:59.006Z,30.10
2022-12-08T01:26:25.579Z,31.25
2022-12-08T01:28:52.174Z,30.20
2022-12-08T01:31:20.957Z,27.58
2022-12-08T01:33:48.214Z,27.98
2022-12-08T01:36:26.343Z,27.48
2022-12-08T01:38:54.053Z,28.85
2022-12-08T01:41:23.597Z,31.30
2022-12-08T01:43:59.020Z,30.05
2022-12-08T01:46:27.043Z,28.27
2022-12-08T01:48:59.228Z,29.27
2022-12-08T01:51:26.475Z,29.08
2022-12-08T01:53:53.355Z,28.67
2022-12-08T01:56:29.018Z,27.95
2022-12-08T01:58:56.454Z,28.23
2022-12-08T02:01:23.502Z,29.38
2022-12-08T02:04:01.250Z,29.85
2022-12-08T02:06:30.805Z,29.80
2022-12-08T02:08:59.367Z,30.08
2022-12-08T02:11:25.970Z,29.48
2022-12-08T02:13:53.996Z,29.33
2022-12-08T02:16:29.644Z,30.80
2022-12-08T02:19:31.207Z,28.73
2022-12-08T02:22:39.229Z,27.15
2022-12-08T02:25:24.483Z,26.77
2022-12-08T02:27:54.064Z,30.00
2022-12-08T02:30:41.075Z,27.38
2022-12-08T02:33:44.541Z,27.55
2022-12-08T02:36:16.181Z,29.35
2022-12-08T02:38:45.911Z,28.65
2022-12-08T02:41:30.204Z,32.58
2022-12-08T02:44:12.529Z,28.50
2022-12-08T02:46:48.257Z,29.35
2022-12-08T02:49:16.604Z,28.40
2022-12-08T02:51:43.203Z,29.05
2022-12-08T02:54:10.392Z,29.58
2022-12-08T02:57:01.845Z,31.08
2022-12-08T02:59:43.226Z,29.42
2022-12-08T03:02:21.562Z,32.15
2022-12-08T03:05:21.844Z,29.48
2022-12-08T03:08:20.623Z,33.55
2022-12-08T03:11:03.534Z,28.10
2022-12-08T03:13:39.963Z,32.45
2022-12-08T03:16:09.772Z,29.00
2022-12-08T03:18:43.918Z,29.77
2022-12-08T03:21:13.239Z,28.55
2022-12-08T03:23:42.862Z,32.08
2022-12-08T03:26:16.237Z,28.85
2022-12-08T03:28:42.884Z,29.13
2022-12-08T03:31:13.920Z,31.50
2022-12-08T03:33:45.383Z,31.10
2022-12-08T03:36:13.887Z,34.85
2022-12-08T03:38:43.253Z,32.80
2022-12-08T03:41:19.602Z,32.90
2022-12-08T03:43:59.328Z,33.55
2022-12-08T03:48:53.957Z,34.05
2022-12-08T03:51:21.310Z,34.88
2022-12-08T03:53:47.982Z,31.60
2022-12-08T03:56:36.818Z,32.13
2022-12-08T03:59:04.756Z,33.40
2022-12-08T04:01:31.772Z,30.75
2022-12-08T04:03:58.444Z,31.77
2022-12-08T04:06:25.353Z,34.35
2022-12-08T04:08:53.386Z,30.35
2022-12-08T04:11:20.819Z,32.05
2022-12-08T04:13:47.875Z,29.67
2022-12-08T04:16:20.308Z,28.52
2022-12-08T04:18:47.174Z,27.17
2022-12-08T04:21:14.258Z,28.48
2022-12-08T04:23:41.536Z,30.90
2022-12-08T04:26:08.766Z,32.03
2022-12-08T04:28:35.802Z,29.95
2022-12-08T04:31:02.599Z,28.50
2022-12-08T04:33:29.511Z,29.73
2022-12-08T04:35:56.260Z,29.52
2022-12-08T04:38:22.910Z,31.98
2022-12-08T04:40:49.614Z,29.13
2022-12-08T04:43:16.207Z,32.17
2022-12-08T04:45:43.207Z,31.42
2022-12-08T04:48:13.067Z,32.28
2022-12-08T04:50:41.834Z,30.88
2022-12-08T04:53:09.521Z,30.02
2022-12-08T04:55:43.725Z,29.98
2022-12-08T04:58:15.011Z,31.70
2022-12-08T05:00:42.184Z,28.88
2022-12-08T05:03:09.248Z,30.63
2022-12-08T05:05:35.973Z,32.08
2022-12-08T05:08:02.992Z,28.65
2022-12-08T05:10:29.839Z,32.47
2022-12-08T05:12:58.276Z,33.17
2022-12-08T05:15:25.135Z,31.75
2022-12-08T05:17:51.775Z,33.35
2022-12-08T05:20:18.474Z,31.27
2022-12-08T05:22:45.079Z,31.83
2022-12-08T05:25:11.784Z,32.30
2022-12-08T05:27:38.427Z,32.10
2022-12-08T05:30:06.233Z,32.40
2022-12-08T05:32:32.998Z,31.05
2022-12-08T05:34:59.594Z,30.77
2022-12-08T05:37:26.250Z,32.63
2022-12-08T05:39:52.957Z,30.73
2022-12-08T05:42:24.563Z,32.22
2022-12-08T05:44:52.146Z,30.52
2022-12-08T05:47:18.779Z,29.80
2022-12-08T05:49:45.445Z,31.33
2022-12-08T05:52:12.060Z,36.30
2022-12-08T05:54:38.711Z,31.70
2022-12-08T05:57:05.306Z,34.20
2022-12-08T05:59:31.930Z,30.63
2022-12-08T06:01:58.629Z,30.98
2022-12-08T06:04:25.328Z,31.85
2022-12-08T06:06:52.346Z,33.17
2022-12-08T06:09:18.917Z,31.55
2022-12-08T06:11:47.083Z,33.05
2022-12-08T06:14:13.756Z,31.48
2022-12-08T06:16:40.416Z,30.33
2022-12-08T06:19:07.227Z,34.35
2022-12-08T06:21:33.871Z,31.63
2022-12-08T06:24:00.519Z,33.22
2022-12-08T06:26:27.183Z,32.95
2022-12-08T06:28:53.860Z,31.50
2022-12-08T06:31:26.325Z,30.63
2022-12-08T06:33:54.335Z,34.05
2022-12-08T06:36:23.458Z,37.38
2022-12-08T06:38:50.332Z,29.60
2022-12-08T06:41:17.309Z,32.42
2022-12-08T06:43:44.189Z,31.58
2022-12-08T06:46:15.425Z,30.80
2022-12-08T06:48:42.151Z,31.67
2022-12-08T06:51:22.005Z,32.78
2022-12-08T06:53:48.776Z,33.15
2022-12-08T06:56:16.768Z,34.33
2022-12-08T06:58:49.039Z,34.72
2022-12-08T07:01:19.129Z,34.85
2022-12-08T07:03:46.237Z,34.65
2022-12-08T07:06:16.845Z,34.83
2022-12-08T07:08:43.485Z,33.42
2022-12-08T07:11:14.099Z,34.17
2022-12-08T07:13:43.237Z,38.92
2022-12-08T07:16:11.986Z,38.72
2022-12-08T07:18:39.264Z,36.03
2022-12-08T07:21:07.496Z,37.17
2022-12-08T07:23:34.621Z,34.88
2022-12-08T07:26:03.051Z,34.22
2022-12-08T07:28:33.910Z,32.63
2022-12-08T07:31:00.881Z,35.20
2022-12-08T07:33:27.824Z,32.50
2022-12-08T07:35:58.977Z,31.77
2022-12-08T07:38:26.108Z,33.50
2022-12-08T07:40:53.616Z,34.30
2022-12-08T07:43:21.655Z,31.77
2022-12-08T07:45:48.815Z,36.53
2022-12-08T07:48:15.962Z,32.08
2022-12-08T07:50:43.131Z,38.67
2022-12-08T07:53:10.023Z,32.05
2022-12-08T07:55:44.404Z,31.92
2022-12-08T07:58:11.768Z,29.48
2022-12-08T08:00:38.629Z,31.63
2022-12-08T08:03:06.180Z,36.45
2022-12-08T08:05:32.967Z,34.60
2022-12-08T08:07:59.624Z,29.80
2022-12-08T08:10:26.294Z,35.35
2022-12-08T08:12:52.985Z,30.40
2022-12-08T08:15:21.088Z,31.75
2022-12-08T08:17:53.616Z,33.40
2022-12-08T08:20:21.216Z,33.47
2022-12-08T08:22:49.615Z,34.65
2022-12-08T08:25:17.370Z,32.72
2022-12-08T08:27:44.272Z,34.78
2022-12-08T08:30:19.657Z,35.35
2022-12-08T08:32:47.680Z,34.40
2022-12-08T08:35:14.673Z,36.20
2022-12-08T08:37:45.773Z,35.85
2022-12-08T08:40:15.552Z,40.58
2022-12-08T08:42:42.121Z,34.92
2022-12-08T08:45:09.049Z,34.53
2022-12-08T08:47:35.735Z,37.28
2022-12-08T08:50:03.061Z,38.50
2022-12-08T08:52:30.048Z,34.17
2022-12-08T08:54:56.712Z,35.78
2022-12-08T08:57:25.845Z,35.33
2022-12-08T08:59:53.787Z,35.63
2022-12-08T09:02:21.141Z,36.38
2022-12-08T09:04:47.916Z,34.20
2022-12-08T09:07:15.672Z,32.13
2022-12-08T09:09:42.262Z,30.73
2022-12-08T09:12:09.054Z,32.45
2022-12-08T09:14:35.728Z,33.15
2022-12-08T09:17:02.408Z,31.75
2022-12-08T09:19:29.065Z,33.10
2022-12-08T09:21:55.643Z,31.90
2022-12-08T09:24:23.095Z,28.33
2022-12-08T09:26:49.952Z,33.40
2022-12-08T09:29:17.547Z,31.67
2022-12-08T09:31:44.273Z,35.08
2022-12-08T09:34:12.362Z,27.73
2022-12-08T09:36:39.619Z,33.95
2022-12-08T09:39:06.427Z,33.40
2022-12-08T09:41:43.317Z,32.45
2022-12-08T09:44:49.085Z,31.63
2022-12-08T09:47:21.023Z,31.80
2022-12-08T09:50:15.577Z,28.73
2022-12-08T09:55:36.195Z,28.63
2022-12-08T09:58:04.709Z,31.10
2022-12-08T10:00:31.332Z,44.22
2022-12-08T10:02:57.989Z,31.05
2022-12-08T10:05:27.706Z,31.90
2022-12-08T10:08:12.082Z,33.40
2022-12-08T10:10:45.094Z,34.63
2022-12-08T10:13:44.578Z,36.40
2022-12-08T10:16:32.266Z,37.35
2022-12-08T10:19:11.446Z,32.17
2022-12-08T10:21:40.700Z,33.30
2022-12-08T10:24:18.583Z,32.55
2022-12-08T10:26:46.834Z,36.08
2022-12-08T10:29:14.229Z,32.65
2022-12-08T10:31:41.349Z,32.47
2022-12-08T10:34:23.098Z,33.55
2022-12-08T10:36:57.224Z,31.25
2022-12-08T10:39:31.288Z,36.58
2022-12-08T10:42:21.882Z,34.20
2022-12-08T10:44:57.653Z,37.40
2022-12-08T10:47:26.898Z,35.20
2022-12-08T10:50:10.285Z,31.35
2022-12-08T10:52:40.991Z,30.17
2022-12-08T10:55:18.968Z,32.38
2022-12-08T10:57:45.885Z,33.55
2022-12-08T11:00:15.597Z,35.03
2022-12-08T11:03:04.545Z,34.92
2022-12-08T11:05:34.309Z,30.67
2022-12-08T11:08:01.591Z,34.78
2022-12-08T11:10:43.384Z,37.00
2022-12-08T11:13:26.727Z,31.08
2022-12-08T11:15:57.471Z,28.63
2022-12-08T11:18:28.325Z,34.90
2022-12-08T11:21:13.626Z,30.33
2022-12-08T11:23:42.644Z,162.93
2022-12-08T11:26:23.823Z,58.47
2022-12-08T11:28:50.524Z,120.68
2022-12-08T11:31:53.746Z,79.32
2022-12-08T11:34:35.368Z,34.92
2022-12-08T11:37:06.311Z,30.55
2022-12-08T11:39:35.711Z,30.05
2022-12-08T11:42:07.396Z,33.88
2022-12-08T11:44:53.381Z,29.10
2022-12-08T11:47:27.867Z,31.08
2022-12-08T11:50:03.512Z,29.05
2022-12-08T11:52:36.348Z,30.85
2022-12-08T11:55:22.886Z,29.70
2022-12-08T11:57:51.517Z,32.50
2022-12-08T12:00:18.762Z,30.15
2022-12-08T12:02:51.231Z,31.95
2022-12-08T12:06:13.287Z,33.95
2022-12-08T12:09:20.822Z,30.75
2022-12-08T12:12:13.569Z,36.15
2022-12-08T12:14:46.026Z,30.65
2022-12-08T12:17:40.395Z,31.15
2022-12-08T12:20:27.371Z,32.53
2022-12-08T12:23:02.694Z,34.33
2022-12-08T12:25:29.410Z,32.42
2022-12-08T12:28:01.292Z,32.00
2022-12-08T12:30:33.227Z,33.60
2022-12-08T12:33:01.947Z,52.65
2022-12-08T12:35:42.811Z,32.05
2022-12-08T12:38:43.793Z,32.95
2022-12-08T12:41:12.181Z,33.50
2022-12-08T12:43:39.811Z,34.03
2022-12-08T12:46:27.173Z,32.47
2022-12-08T12:48:53.910Z,33.05
2022-12-08T12:51:47.486Z,32.17
2022-12-08T12:54:22.602Z,23.90
2022-12-08T12:56:55.899Z,31.35
2022-12-08T12:59:34.929Z,24.08
2022-12-08T13:02:02.599Z,32.25
2022-12-08T13:04:32.923Z,42.50
2022-12-08T13:07:00.065Z,34.00
2022-12-08T13:09:37.209Z,30.38
2022-12-08T13:12:18.007Z,30.48
2022-12-08T13:14:48.691Z,27.83
2022-12-08T13:17:27.175Z,29.92
2022-12-08T13:19:58.071Z,27.80
2022-12-08T13:23:10.777Z,28.90
2022-12-08T13:25:40.133Z,33.10
2022-12-08T13:28:15.909Z,30.35
2022-12-08T13:30:47.145Z,30.88
2022-12-08T13:33:41.805Z,26.55
2022-12-08T13:36:31.251Z,32.72
2022-12-08T13:38:59.772Z,28.98
2022-12-08T13:41:44.286Z,30.38
2022-12-08T13:47:33.300Z,31.17
2022-12-08T13:56:59.657Z,33.65
2022-12-08T13:58:42.713Z,31.33
2022-12-08T14:01:16.734Z,30.98
2022-12-08T14:06:47.665Z,31.35
2022-12-08T14:09:27.248Z,30.17
2022-12-08T14:12:00.400Z,28.15
2022-12-08T14:15:01.135Z,29.10
2022-12-08T14:17:22.145Z,33.75
2022-12-08T14:20:18.049Z,31.42
2022-12-08T14:22:44.684Z,33.25
2022-12-08T14:25:16.503Z,32.75
2022-12-08T14:27:43.890Z,34.25
2022-12-08T14:30:18.434Z,32.83
2022-12-08T14:32:49.635Z,36.00
2022-12-08T14:35:29.869Z,32.40
2022-12-08T14:38:00.092Z,33.88
2022-12-08T14:40:37.732Z,34.88
2022-12-08T14:43:10.546Z,34.60
2022-12-08T14:45:42.909Z,37.55
2022-12-08T14:48:26.319Z,36.17
2022-12-08T14:51:14.153Z,38.92
2022-12-08T14:53:52.249Z,37.47
2022-12-08T14:56:23.224Z,35.88
2022-12-08T14:59:11.643Z,36.35
2022-12-08T15:01:39.091Z,35.65
2022-12-08T15:04:17.773Z,35.90
2022-12-08T15:07:02.329Z,40.22
2022-12-08T15:09:35.330Z,37.38
2022-12-08T15:12:07.561Z,37.03
2022-12-08T15:14:37.004Z,37.30
2022-12-08T15:17:04.552Z,37.88
2022-12-08T15:19:33.773Z,36.75
2022-12-08T15:22:19.563Z,37.33
2022-12-08T15:24:46.229Z,42.63
2022-12-08T15:27:18.908Z,36.90
2022-12-08T15:29:49.671Z,39.88
2022-12-08T15:32:19.399Z,37.00
2022-12-08T15:34:46.034Z,36.92
2022-12-08T15:37:23.938Z,37.05
2022-12-08T15:39:50.771Z,37.10
2022-12-08T15:42:17.867Z,34.05
2022-12-08T15:44:44.614Z,38.75
2022-12-08T15:47:24.122Z,41.75
2022-12-08T15:49:55.097Z,39.42
2022-12-08T15:52:23.880Z,33.17
2022-12-08T15:54:51.130Z,37.28
2022-12-08T15:57:53.020Z,37.72
2022-12-08T16:00:51.336Z,37.95
2022-12-08T16:09:12.389Z,36.65
2022-12-08T16:12:09.025Z,39.05
2022-12-08T16:17:23.712Z,38.75
2022-12-08T16:19:50.381Z,39.65
2022-12-08T16:25:18.183Z,41.22
2022-12-08T16:30:36.848Z,41.45
2022-12-08T16:33:03.855Z,39.85
2022-12-08T16:35:30.564Z,39.20
2022-12-08T16:37:57.878Z,42.40
2022-12-08T16:40:24.521Z,40.60
2022-12-08T16:42:51.212Z,38.95
2022-12-08T16:45:20.882Z,38.47
2022-12-08T16:47:51.015Z,38.83
2022-12-08T16:50:21.196Z,42.67
2022-12-08T16:52:48.661Z,37.50
2022-12-08T16:55:18.514Z,54.25
2022-12-08T16:57:47.112Z,46.22
2022-12-08T17:00:19.862Z,53.85
2022-12-08T17:02:46.588Z,43.47
2022-12-08T17:05:15.313Z,53.80
2022-12-08T17:07:43.488Z,45.15
2022-12-08T17:10:12.315Z,42.95
2022-12-08T17:12:39.302Z,45.70
2022-12-08T17:15:08.540Z,39.83
2022-12-08T17:17:36.336Z,42.13
2022-12-08T17:20:05.472Z,42.53
2022-12-08T17:22:33.820Z,40.35
2022-12-08T17:25:01.605Z,40.83
2022-12-08T17:27:28.717Z,43.80
2022-12-08T17:29:55.282Z,44.20
2022-12-08T17:32:22.106Z,42.17
2022-12-08T17:34:49.453Z,42.85
2022-12-08T17:37:17.212Z,41.38
2022-12-08T17:39:43.996Z,48.40
2022-12-08T17:42:10.620Z,45.47
2022-12-08T17:44:38.103Z,45.03
2022-12-08T17:47:05.296Z,43.83
2022-12-08T17:49:35.322Z,47.28
2022-12-08T17:52:06.812Z,46.00
2022-12-08T17:54:34.103Z,47.22
2022-12-08T17:57:00.747Z,44.65
2022-12-08T17:59:28.631Z,44.05
2022-12-08T18:01:56.808Z,43.00
2022-12-08T18:04:25.271Z,42.47
2022-12-08T18:06:52.022Z,45.03
2022-12-08T18:09:19.948Z,47.13
2022-12-08T18:11:47.134Z,44.42
2022-12-08T18:14:14.764Z,44.92
2022-12-08T18:16:44.498Z,45.80
2022-12-08T18:19:12.726Z,48.30
2022-12-08T18:21:40.209Z,46.95
2022-12-08T18:24:08.029Z,43.25
2022-12-08T18:26:35.485Z,49.08
2022-12-08T18:29:02.175Z,45.20
2022-12-08T18:31:28.950Z,49.40
2022-12-08T18:33:55.575Z,46.05
2022-12-08T18:36:24.798Z,46.13
2022-12-08T18:38:52.378Z,49.03
2022-12-08T18:41:24.413Z,48.03
2022-12-08T18:43:51.751Z,50.22
2022-12-08T18:46:18.593Z,48.28
2022-12-08T18:48:48.676Z,43.67
2022-12-08T18:51:18.140Z,45.22
2022-12-08T18:53:45.889Z,47.30
2022-12-08T18:56:24.206Z,44.85
2022-12-08T18:58:50.972Z,50.00
2022-12-08T19:01:18.230Z,46.92
2022-12-08T19:04:04.693Z,54.30
2022-12-08T19:06:32.049Z,46.47
2022-12-08T19:08:59.029Z,61.08
2022-12-08T19:11:27.957Z,53.17
2022-12-08T19:13:56.032Z,55.58
2022-12-08T19:16:23.144Z,56.33
2022-12-08T19:18:49.844Z,61.22
2022-12-08T19:21:17.006Z,53.28
2022-12-08T19:23:43.639Z,58.40
2022-12-08T19:26:11.872Z,58.67
2022-12-08T19:28:40.892Z,65.63
2022-12-08T19:31:08.726Z,68.97
2022-12-08T19:33:36.898Z,66.47
2022-12-08T19:36:14.731Z,71.35
2022-12-08T19:39:00.276Z,71.35
2022-12-08T19:41:45.490Z,66.80
2022-12-08T19:44:45.670Z,67.13
2022-12-08T19:47:12.505Z,60.03
2022-12-08T19:49:39.277Z,65.25
2022-12-08T19:52:06.439Z,64.95
2022-12-08T19:54:33.111Z,64.68
2022-12-08T19:56:59.727Z,62.53
2022-12-08T19:59:26.511Z,63.63
2022-12-08T20:01:59.500Z,61.17
2022-12-08T20:04:27.184Z,62.08
2022-12-08T20:06:55.023Z,59.83
2022-12-08T20:09:22.225Z,58.47
2022-12-08T20:11:50.684Z,58.78
2022-12-08T20:14:18.349Z,65.32
2022-12-08T20:16:45.082Z,55.80
2022-12-08T20:19:11.763Z,54.75
2022-12-08T20:21:39.616Z,57.40
2022-12-08T20:24:07.068Z,53.85
2022-12-08T20:26:33.728Z,62.38
2022-12-08T20:29:00.366Z,64.45
2022-12-08T20:31:29.449Z,61.00
2022-12-08T20:33:56.162Z,63.70
2022-12-08T20:36:23.131Z,56.70
2022-12-08T20:38:51.603Z,59.72
2022-12-08T20:41:19.749Z,57.95
2022-12-08T20:43:47.260Z,59.92
2022-12-08T20:46:15.906Z,66.00
2022-12-08T20:48:43.662Z,61.95
2022-12-08T20:51:14.253Z,60.85
2022-12-08T20:53:41.036Z,62.72
2022-12-08T20:56:08.097Z,61.90
2022-12-08T20:58:34.765Z,60.10
2022-12-08T21:01:07.488Z,66.43
2022-12-08T21:03:34.242Z,63.53
2022-12-08T21:06:01.316Z,63.15
2022-12-08T21:08:28.096Z,65.35
2022-12-08T21:10:56.390Z,59.20
2022-12-08T21:13:23.307Z,63.55
2022-12-08T21:15:50.104Z,61.55
2022-12-08T21:18:17.575Z,59.70
2022-12-08T21:20:44.524Z,70.78
2022-12-08T21:23:11.757Z,63.83
2022-12-08T21:25:43.945Z,60.60
2022-12-08T21:28:11.461Z,63.97
2022-12-08T21:30:39.806Z,63.40
2022-12-08T21:33:06.706Z,62.33
2022-12-08T21:35:33.515Z,59.28
2022-12-08T21:38:00.233Z,60.65
2022-12-08T21:40:27.076Z,66.78
2022-12-08T21:42:53.790Z,62.22
2022-12-08T21:45:20.923Z,61.53
2022-12-08T21:47:49.047Z,64.18
2022-12-08T21:50:16.850Z,67.32
2022-12-08T21:52:46.493Z,66.78
2022-12-08T21:55:14.732Z,67.18
2022-12-08T21:57:42.092Z,68.10
2022-12-08T22:00:11.708Z,61.60
2022-12-08T22:02:38.925Z,68.45
2022-12-08T22:05:06.472Z,67.90
2022-12-08T22:07:33.331Z,66.90
2022-12-08T22:09:59.998Z,73.53
2022-12-08T22:12:26.738Z,74.43
2022-12-08T22:14:53.470Z,71.18
2022-12-08T22:17:20.321Z,63.90
2022-12-08T22:19:47.166Z,70.60
2022-12-08T22:22:14.002Z,73.70
2022-12-08T22:24:40.580Z,72.63
2022-12-08T22:27:07.476Z,73.82
2022-12-08T22:29:34.055Z,66.65
2022-12-08T22:32:00.830Z,65.25
2022-12-08T22:34:27.517Z,70.60
2022-12-08T22:36:54.303Z,70.70
2022-12-08T22:39:21.116Z,67.47
2022-12-08T22:41:47.939Z,66.97
2022-12-08T22:44:16.310Z,63.58
2022-12-08T22:46:43.092Z,69.32
2022-12-08T22:49:09.729Z,67.57
2022-12-08T22:51:37.708Z,67.70
2022-12-08T22:54:05.464Z,65.65
2022-12-08T22:56:32.141Z,70.60
2022-12-08T22:58:59.049Z,65.95
2022-12-08T23:01:30.828Z,67.35
2022-12-08T23:03:58.995Z,68.63
2022-12-08T23:06:27.838Z,67.25
2022-12-08T23:08:55.386Z,72.25
2022-12-08T23:11:24.655Z,70.35
2022-12-08T23:13:51.585Z,74.22
2022-12-08T23:16:18.582Z,70.57
2022-12-08T23:18:46.400Z,63.33
2022-12-08T23:21:18.964Z,69.32
2022-12-08T23:23:46.665Z,72.45
2022-12-08T23:26:25.755Z,71.28
2022-12-08T23:28:53.185Z,65.10
2022-12-08T23:31:20.821Z,68.93
2022-12-08T23:33:47.831Z,65.88
2022-12-08T23:36:15.743Z,70.90
2022-12-08T23:38:42.758Z,62.97
2022-12-08T23:41:11.858Z,64.03
2022-12-08T23:43:44.334Z,74.50
2022-12-08T23:46:11.543Z,71.43
2022-12-08T23:48:38.287Z,95.00
2022-12-08T23:51:05.493Z,102.05
2022-12-08T23:53:33.317Z,98.72
2022-12-08T23:56:08.974Z,92.70
2022-12-08T23:58:36.852Z,79.68
